Time;durP1;ratioP1;P1;durP2;ratioP2;P2;SDS_P1;SDS_P2;PMS_P1;PMS_P2;Temp;Humidity;BMP_temperature;BMP_pressure;BME280_temperature;BME280_humidity;BME280_pressure;Samples;Min_cycle;Max_cycle;Signal;HPM_P1;HPM_P2
2021/09/01 00:00:49;;;;;;;23.85;10.85;;;13.00;99.90;;;;;;5003868;28;20022;-57
2021/09/01 00:03:15;;;;;;;24.98;10.15;;;12.90;99.90;;;;;;5009953;28;20528;-59
2021/09/01 00:05:40;;;;;;;27.92;10.65;;;12.90;99.90;;;;;;5004850;28;20038;-57
2021/09/01 00:08:06;;;;;;;18.45;9.63;;;12.80;99.90;;;;;;5006962;28;20033;-57
2021/09/01 00:10:33;;;;;;;22.65;9.90;;;12.70;99.90;;;;;;5011997;28;20068;-60
2021/09/01 00:12:59;;;;;;;23.60;8.40;;;12.60;99.90;;;;;;5009744;28;20157;-50
2021/09/01 00:15:24;;;;;;;22.00;8.77;;;12.60;99.90;;;;;;5045482;23;20423;-59
2021/09/01 00:17:50;;;;;;;19.30;10.25;;;12.50;99.90;;;;;;5031711;28;20029;-58
2021/09/01 00:20:16;;;;;;;18.83;9.02;;;12.50;99.90;;;;;;5031012;28;20564;-56
2021/09/01 00:22:41;;;;;;;14.82;8.38;;;12.50;99.90;;;;;;5010326;28;20132;-57
2021/09/01 00:25:08;;;;;;;16.58;9.23;;;12.40;99.90;;;;;;5031623;28;20040;-54
2021/09/01 00:27:34;;;;;;;18.08;10.05;;;12.40;99.90;;;;;;5029402;28;20029;-58
2021/09/01 00:30:00;;;;;;;20.08;9.00;;;12.30;99.90;;;;;;5030108;28;20095;-53
2021/09/01 00:32:25;;;;;;;20.77;8.32;;;12.30;99.90;;;;;;5030531;28;20029;-55
2021/09/01 00:34:51;;;;;;;26.45;9.32;;;12.20;99.90;;;;;;5030379;28;20037;-58
2021/09/01 00:37:17;;;;;;;23.55;10.35;;;12.20;99.90;;;;;;5030490;28;20033;-58
2021/09/01 00:39:42;;;;;;;25.48;9.52;;;12.10;99.90;;;;;;5019921;28;20571;-58
2021/09/01 00:42:09;;;;;;;26.63;11.10;;;12.10;99.90;;;;;;5028372;28;20022;-59
2021/09/01 00:44:35;;;;;;;22.23;10.13;;;12.10;99.90;;;;;;5029936;28;20096;-58
2021/09/01 00:47:03;;;;;;;22.63;10.25;;;12.00;99.90;;;;;;5022989;28;20030;-59
2021/09/01 00:49:30;;;;;;;23.60;10.82;;;12.00;99.90;;;;;;5031312;28;20030;-57
2021/09/01 00:51:56;;;;;;;19.70;9.75;;;12.00;99.90;;;;;;5027875;28;20029;-59
2021/09/01 00:54:24;;;;;;;23.98;11.00;;;12.00;99.90;;;;;;5031036;28;20024;-58
2021/09/01 00:56:53;;;;;;;19.02;9.73;;;12.00;99.90;;;;;;5023310;28;20049;-58
2021/09/01 00:59:21;;;;;;;28.10;11.07;;;11.90;99.90;;;;;;5026537;28;20514;-58
2021/09/01 01:01:47;;;;;;;29.08;10.90;;;11.90;99.90;;;;;;5019377;28;20088;-59
2021/09/01 01:04:13;;;;;;;22.50;11.32;;;11.80;99.90;;;;;;5030190;28;20022;-58
2021/09/01 01:06:38;;;;;;;26.63;12.27;;;11.90;99.90;;;;;;5026110;28;20495;-52
2021/09/01 01:09:04;;;;;;;22.00;10.82;;;11.80;99.90;;;;;;5028348;28;20091;-59
2021/09/01 01:11:30;;;;;;;26.55;11.25;;;11.80;99.90;;;;;;5031116;28;20108;-58
2021/09/01 01:13:55;;;;;;;33.10;12.60;;;11.80;99.90;;;;;;5030562;28;20021;-54
2021/09/01 01:16:25;;;;;;;28.35;12.38;;;11.80;99.90;;;;;;5029964;28;20053;-58
2021/09/01 01:18:52;;;;;;;30.98;12.43;;;11.80;99.90;;;;;;5018699;28;20471;-58
2021/09/01 01:21:22;;;;;;;26.52;12.02;;;11.80;99.90;;;;;;5029285;28;20097;-57
2021/09/01 01:24:00;;;;;;;34.50;14.02;;;11.80;99.90;;;;;;5023296;28;20021;-58
2021/09/01 01:26:29;;;;;;;33.22;16.00;;;11.80;99.90;;;;;;5026958;28;20025;-57
2021/09/01 01:28:58;;;;;;;30.42;13.48;;;11.90;99.90;;;;;;5025827;28;20057;-56
2021/09/01 01:31:23;;;;;;;30.70;13.43;;;11.90;99.90;;;;;;5030538;28;20369;-56
2021/09/01 01:33:49;;;;;;;33.88;15.25;;;12.00;99.90;;;;;;5029957;28;20036;-57
2021/09/01 01:36:15;;;;;;;28.83;14.70;;;12.10;99.90;;;;;;5029893;28;20492;-57
2021/09/01 01:38:40;;;;;;;28.27;13.07;;;12.20;99.90;;;;;;5025887;28;20033;-56
2021/09/01 01:41:06;;;;;;;30.38;12.43;;;12.30;99.90;;;;;;5026522;28;20032;-57
2021/09/01 01:43:36;;;;;;;25.77;10.65;;;12.40;99.90;;;;;;5026597;28;20042;-57
2021/09/01 01:46:02;;;;;;;23.70;12.10;;;12.40;99.90;;;;;;5024943;28;20022;-59
2021/09/01 01:48:28;;;;;;;23.17;10.95;;;12.50;99.90;;;;;;5029041;28;20068;-56
2021/09/01 01:50:53;;;;;;;22.92;11.98;;;12.60;99.90;;;;;;5029941;28;20502;-58
2021/09/01 01:53:19;;;;;;;25.73;12.55;;;12.70;99.90;;;;;;5025111;28;20026;-56
2021/09/01 01:55:45;;;;;;;38.85;15.43;;;12.80;99.90;;;;;;5024116;28;20022;-57
2021/09/01 01:58:10;;;;;;;32.53;14.10;;;12.90;99.90;;;;;;5020881;28;20508;-58
2021/09/01 02:00:36;;;;;;;19.65;12.15;;;12.90;99.90;;;;;;5026547;28;20132;-56
2021/09/01 02:03:02;;;;;;;28.58;12.52;;;13.00;99.90;;;;;;5030510;28;20045;-56
2021/09/01 02:05:28;;;;;;;31.88;13.60;;;13.10;99.90;;;;;;5024489;28;20370;-58
2021/09/01 02:07:53;;;;;;;30.67;13.43;;;13.10;99.90;;;;;;5028368;28;20056;-58
2021/09/01 02:10:19;;;;;;;35.63;15.57;;;13.20;99.90;;;;;;5024456;28;20026;-59
2021/09/01 02:12:45;;;;;;;31.52;13.32;;;13.30;99.90;;;;;;5028203;28;20492;-58
2021/09/01 02:15:11;;;;;;;22.77;11.18;;;13.30;99.90;;;;;;5022441;28;20033;-57
2021/09/01 02:17:38;;;;;;;23.50;11.02;;;13.30;99.90;;;;;;5029596;28;20029;-57
2021/09/01 02:20:06;;;;;;;23.45;11.52;;;13.30;99.90;;;;;;5024718;28;20441;-57
2021/09/01 02:22:31;;;;;;;30.70;13.82;;;13.40;99.90;;;;;;5028172;28;20044;-57
2021/09/01 02:24:57;;;;;;;22.40;10.40;;;13.40;99.90;;;;;;5029009;28;20026;-59
2021/09/01 02:27:22;;;;;;;20.25;10.88;;;13.40;99.90;;;;;;5027292;28;20109;-57
2021/09/01 02:29:48;;;;;;;27.02;11.57;;;13.40;99.90;;;;;;5030463;28;20025;-57
2021/09/01 02:32:14;;;;;;;20.00;9.82;;;13.40;99.90;;;;;;5025107;28;20436;-58
2021/09/01 02:34:40;;;;;;;27.13;11.48;;;13.50;99.90;;;;;;5024004;28;20712;-58
2021/09/01 02:37:06;;;;;;;27.90;14.82;;;13.50;99.90;;;;;;5029847;28;20025;-57
2021/09/01 02:39:32;;;;;;;30.25;15.18;;;13.50;99.90;;;;;;5028757;28;20030;-59
2021/09/01 02:41:57;;;;;;;27.30;14.48;;;13.60;99.90;;;;;;5022933;28;20500;-57
2021/09/01 02:44:24;;;;;;;32.97;15.55;;;13.60;99.90;;;;;;5024233;28;20112;-58
2021/09/01 02:46:49;;;;;;;45.83;17.13;;;13.70;99.90;;;;;;5030299;28;20022;-57
2021/09/01 02:49:15;;;;;;;28.05;14.50;;;13.70;99.90;;;;;;5029474;28;20029;-57
2021/09/01 02:51:41;;;;;;;30.15;14.93;;;13.80;99.90;;;;;;5029604;28;20026;-59
2021/09/01 02:54:07;;;;;;;34.55;14.02;;;13.70;99.90;;;;;;5030070;28;20121;-56
2021/09/01 02:56:32;;;;;;;28.35;12.65;;;13.80;99.90;;;;;;5027948;28;20033;-56
2021/09/01 02:58:58;;;;;;;16.38;9.77;;;13.80;99.90;;;;;;5026484;28;20029;-58
2021/09/01 03:01:24;;;;;;;13.57;8.68;;;13.70;99.90;;;;;;5029152;28;20037;-57
2021/09/01 03:03:49;;;;;;;15.65;9.50;;;13.70;99.90;;;;;;5032907;28;20030;-55
2021/09/01 03:06:15;;;;;;;19.75;8.73;;;13.60;99.90;;;;;;5033131;28;20135;-56
2021/09/01 03:08:40;;;;;;;18.65;9.38;;;13.50;99.90;;;;;;5032164;28;20117;-57
2021/09/01 03:11:06;;;;;;;19.80;9.15;;;13.40;99.90;;;;;;5032814;28;20431;-58
2021/09/01 03:13:33;;;;;;;20.13;9.05;;;13.40;99.90;;;;;;5032983;28;20052;-53
2021/09/01 03:15:59;;;;;;;14.60;9.07;;;13.30;99.90;;;;;;5033416;28;20021;-56
2021/09/01 03:18:24;;;;;;;17.88;8.02;;;13.30;99.90;;;;;;5029123;28;20083;-57
2021/09/01 03:20:50;;;;;;;21.10;10.32;;;13.20;99.90;;;;;;5033447;28;20045;-57
2021/09/01 03:23:16;;;;;;;14.07;9.63;;;13.20;99.90;;;;;;5032643;28;20032;-59
2021/09/01 03:25:41;;;;;;;12.88;7.75;;;13.20;99.90;;;;;;5025278;28;20033;-57
2021/09/01 03:28:07;;;;;;;23.55;8.55;;;13.20;99.90;;;;;;5033268;28;20025;-58
2021/09/01 03:30:33;;;;;;;17.92;8.90;;;13.20;99.90;;;;;;5031681;28;20424;-58
2021/09/01 03:32:59;;;;;;;15.95;9.85;;;13.20;99.90;;;;;;5027648;28;20029;-59
2021/09/01 03:35:24;;;;;;;22.85;9.15;;;13.20;99.90;;;;;;5032188;28;20029;-57
2021/09/01 03:37:50;;;;;;;13.85;9.20;;;13.20;99.90;;;;;;5031569;28;20029;-57
2021/09/01 03:40:16;;;;;;;12.77;8.30;;;13.20;99.90;;;;;;5029364;28;20037;-56
2021/09/01 03:42:42;;;;;;;16.95;9.70;;;13.20;99.90;;;;;;5032660;28;20033;-56
2021/09/01 03:45:09;;;;;;;17.63;9.50;;;13.20;99.90;;;;;;5031540;28;20065;-55
2021/09/01 03:47:35;;;;;;;21.75;10.18;;;13.30;99.90;;;;;;5032925;28;20087;-58
2021/09/01 03:50:02;;;;;;;19.08;9.88;;;13.30;99.90;;;;;;5031128;28;20025;-59
2021/09/01 03:52:28;;;;;;;22.92;12.55;;;13.30;99.90;;;;;;5029055;28;20032;-59
2021/09/01 03:54:53;;;;;;;30.60;13.05;;;13.40;99.90;;;;;;5029478;28;20030;-57
2021/09/01 03:57:19;;;;;;;26.90;12.85;;;13.40;99.90;;;;;;5032471;28;20254;-58
2021/09/01 03:59:44;;;;;;;22.35;11.73;;;13.50;99.90;;;;;;5028315;28;20090;-58
2021/09/01 04:02:10;;;;;;;13.73;9.15;;;13.50;99.90;;;;;;5031960;28;20407;-56
2021/09/01 04:04:36;;;;;;;23.42;11.93;;;13.50;99.90;;;;;;5029081;28;20528;-56
2021/09/01 04:07:03;;;;;;;24.08;10.63;;;13.50;99.90;;;;;;5031743;28;20025;-54
2021/09/01 04:09:29;;;;;;;28.55;12.30;;;13.50;99.90;;;;;;5030850;28;20041;-57
2021/09/01 04:11:55;;;;;;;23.85;12.13;;;13.50;99.90;;;;;;5031252;28;20029;-59
2021/09/01 04:14:20;;;;;;;28.73;11.25;;;13.40;99.90;;;;;;5030992;28;20499;-57
2021/09/01 04:16:46;;;;;;;26.75;11.90;;;13.40;99.90;;;;;;5027252;28;20038;-58
2021/09/01 04:19:12;;;;;;;23.35;12.13;;;13.40;99.90;;;;;;5031936;28;20052;-55
2021/09/01 04:21:37;;;;;;;21.90;11.57;;;13.50;99.90;;;;;;5029582;28;20117;-59
2021/09/01 04:24:03;;;;;;;28.85;12.15;;;13.40;99.90;;;;;;5029198;28;20120;-58
2021/09/01 04:26:29;;;;;;;24.83;12.80;;;13.40;99.90;;;;;;5026232;28;20488;-58
2021/09/01 04:28:54;;;;;;;21.77;10.95;;;13.50;99.90;;;;;;5029468;28;20033;-58
2021/09/01 04:31:20;;;;;;;26.70;11.05;;;13.40;99.90;;;;;;5032172;28;20041;-56
2021/09/01 04:33:45;;;;;;;32.08;15.35;;;13.50;99.90;;;;;;5025281;28;20017;-58
2021/09/01 04:36:11;;;;;;;21.75;12.00;;;13.40;99.90;;;;;;5031084;28;20048;-57
2021/09/01 04:38:36;;;;;;;26.55;12.70;;;13.50;99.90;;;;;;5026523;28;20029;-57
2021/09/01 04:41:02;;;;;;;20.40;11.32;;;13.50;99.90;;;;;;5029735;28;20091;-56
2021/09/01 04:43:28;;;;;;;24.60;11.70;;;13.50;99.90;;;;;;5030811;28;20030;-58
2021/09/01 04:45:53;;;;;;;31.63;13.27;;;13.60;99.90;;;;;;5031983;28;20049;-58
2021/09/01 04:48:19;;;;;;;22.85;10.88;;;13.60;99.90;;;;;;5031636;28;20030;-58
2021/09/01 04:50:44;;;;;;;23.50;9.65;;;13.60;99.90;;;;;;5031036;28;20025;-59
2021/09/01 04:53:10;;;;;;;25.63;10.73;;;13.50;99.90;;;;;;5031141;28;20048;-57
2021/09/01 04:55:36;;;;;;;16.95;9.02;;;13.50;99.90;;;;;;5029831;28;20033;-58
2021/09/01 04:58:01;;;;;;;19.80;9.18;;;13.50;99.90;;;;;;5027578;28;20104;-58
2021/09/01 05:00:27;;;;;;;17.67;9.32;;;13.50;99.90;;;;;;5030549;28;20566;-59
2021/09/01 05:02:53;;;;;;;22.98;10.10;;;13.50;99.90;;;;;;5028910;28;20049;-58
2021/09/01 05:05:18;;;;;;;19.10;11.30;;;13.50;99.90;;;;;;5030967;28;20040;-59
2021/09/01 05:07:44;;;;;;;18.83;10.05;;;13.50;99.90;;;;;;5027672;28;20038;-58
2021/09/01 05:10:10;;;;;;;22.30;10.65;;;13.50;99.90;;;;;;5027761;28;20086;-56
2021/09/01 05:12:36;;;;;;;19.10;10.43;;;13.50;99.90;;;;;;5028932;28;20038;-58
2021/09/01 05:15:02;;;;;;;27.27;11.75;;;13.50;99.90;;;;;;5031170;28;20025;-57
2021/09/01 05:17:27;;;;;;;25.73;11.02;;;13.60;99.90;;;;;;5028760;28;20082;-55
2021/09/01 05:19:53;;;;;;;21.60;11.93;;;13.60;99.90;;;;;;5030785;28;20524;-56
2021/09/01 05:22:22;;;;;;;28.45;12.45;;;13.70;99.90;;;;;;5027055;28;20029;-57
2021/09/01 05:25:11;;;;;;;21.95;12.10;;;13.70;99.90;;;;;;5031112;28;20036;-58
2021/09/01 05:27:40;;;;;;;19.58;11.77;;;13.70;99.90;;;;;;5028277;28;20037;-58
2021/09/01 05:30:09;;;;;;;21.95;9.50;;;13.80;99.90;;;;;;5028168;28;20121;-54
2021/09/01 05:32:37;;;;;;;16.48;9.40;;;13.80;99.90;;;;;;5029805;28;20052;-58
2021/09/01 05:35:04;;;;;;;23.60;11.32;;;13.80;99.90;;;;;;5030917;28;20474;-57
2021/09/01 05:37:31;;;;;;;25.13;10.85;;;13.80;99.90;;;;;;5029556;28;20032;-58
2021/09/01 05:39:58;;;;;;;20.80;11.55;;;13.80;99.90;;;;;;5027970;28;20029;-58
2021/09/01 05:42:29;;;;;;;22.38;11.32;;;13.90;99.90;;;;;;5027596;28;20024;-58
2021/09/01 05:44:56;;;;;;;16.63;9.73;;;13.90;99.90;;;;;;5028604;28;20480;-59
2021/09/01 05:47:22;;;;;;;20.65;9.20;;;13.90;99.90;;;;;;5024263;28;20037;-57
2021/09/01 05:49:49;;;;;;;20.58;9.88;;;14.00;99.90;;;;;;5028835;28;20037;-56
2021/09/01 05:52:17;;;;;;;26.02;9.20;;;14.00;99.90;;;;;;5028560;28;20037;-58
2021/09/01 05:54:44;;;;;;;22.85;9.40;;;14.10;99.90;;;;;;5025913;28;20025;-58
2021/09/01 05:57:18;;;;;;;21.92;10.30;;;14.10;99.90;;;;;;5030672;28;20030;-55
2021/09/01 05:59:56;;;;;;;16.52;9.73;;;14.20;99.90;;;;;;5025703;28;20025;-55
2021/09/01 06:02:52;;;;;;;17.15;9.85;;;14.20;99.90;;;;;;5028995;28;20384;-57
2021/09/01 06:05:20;;;;;;;19.65;10.40;;;14.30;99.90;;;;;;5026606;28;20038;-52
2021/09/01 06:08:09;;;;;;;18.35;9.55;;;14.40;99.90;;;;;;5029729;28;20076;-57
2021/09/01 06:10:35;;;;;;;13.73;8.18;;;14.50;99.90;;;;;;5023207;28;20025;-58
2021/09/01 06:13:09;;;;;;;13.05;8.10;;;14.60;99.90;;;;;;5027185;28;20038;-58
2021/09/01 06:15:36;;;;;;;;;;;14.60;99.90;;;;;;5030648;28;20037;-59
2021/09/01 06:18:02;;;;;;;18.05;8.80;;;14.50;99.90;;;;;;5029428;28;19912;-59
2021/09/01 06:20:30;;;;;;;9.50;7.70;;;14.50;99.90;;;;;;5027372;28;20051;-59
2021/09/01 06:22:57;;;;;;;22.80;7.95;;;14.60;99.90;;;;;;5026762;28;20457;-59
2021/09/01 06:25:22;;;;;;;15.75;8.75;;;14.60;99.90;;;;;;5029288;28;20064;-57
2021/09/01 06:27:48;;;;;;;11.77;6.90;;;14.60;99.90;;;;;;5030346;28;20053;-60
2021/09/01 06:30:14;;;;;;;13.45;7.88;;;14.70;99.90;;;;;;5029252;28;20131;-60
2021/09/01 06:32:40;;;;;;;13.68;8.65;;;14.70;99.90;;;;;;5026827;28;20666;-58
2021/09/01 06:35:06;;;;;;;21.45;8.23;;;14.80;99.90;;;;;;5023880;28;20018;-59
2021/09/01 06:37:33;;;;;;;26.13;10.15;;;14.80;99.90;;;;;;5028182;28;20035;-58
2021/09/01 06:39:59;;;;;;;22.77;9.63;;;14.80;99.90;;;;;;5030559;28;20028;-59
2021/09/01 06:42:26;;;;;;;19.73;9.07;;;14.90;99.90;;;;;;5034162;28;20570;-58
2021/09/01 06:44:52;;;;;;;24.83;10.52;;;15.00;99.90;;;;;;5012193;28;20041;-57
2021/09/01 06:47:17;;;;;;;21.02;10.10;;;15.10;99.90;;;;;;5032062;28;20025;-59
2021/09/01 06:49:43;;;;;;;19.67;10.25;;;15.10;99.90;;;;;;5033295;28;20384;-57
2021/09/01 06:52:09;;;;;;;21.83;10.95;;;15.20;99.90;;;;;;5027057;28;20129;-58
2021/09/01 06:54:34;;;;;;;22.45;12.18;;;15.30;99.90;;;;;;5027855;28;20099;-58
2021/09/01 06:57:00;;;;;;;26.52;11.70;;;15.30;99.90;;;;;;5032333;28;20376;-56
2021/09/01 06:59:25;;;;;;;21.50;11.10;;;15.40;99.90;;;;;;5031738;28;20032;-59
2021/09/01 07:01:51;;;;;;;21.75;13.25;;;15.50;99.90;;;;;;5030946;28;20021;-57
2021/09/01 07:04:16;;;;;;;28.60;13.77;;;15.60;99.90;;;;;;5032193;28;20029;-55
2021/09/01 07:06:42;;;;;;;29.73;13.38;;;15.70;99.90;;;;;;5032016;28;20026;-58
2021/09/01 07:09:08;;;;;;;20.73;12.40;;;15.80;99.90;;;;;;5031616;28;20029;-59
2021/09/01 07:11:33;;;;;;;25.10;12.75;;;15.90;99.90;;;;;;5031407;28;20057;-57
2021/09/01 07:13:59;;;;;;;22.67;12.27;;;15.90;99.90;;;;;;5031887;28;20030;-57
2021/09/01 07:16:25;;;;;;;27.85;14.05;;;16.00;99.90;;;;;;5032052;28;20030;-56
2021/09/01 07:18:51;;;;;;;28.10;12.13;;;16.10;99.90;;;;;;5025459;28;20021;-56
2021/09/01 07:21:16;;;;;;;19.08;11.02;;;16.10;99.90;;;;;;5030010;28;20488;-57
2021/09/01 07:23:43;;;;;;;17.27;10.70;;;16.30;99.90;;;;;;5028230;28;20377;-57
2021/09/01 07:26:10;;;;;;;26.35;11.60;;;16.20;99.90;;;;;;5032210;28;20083;-58
2021/09/01 07:28:38;;;;;;;25.00;11.52;;;16.40;99.90;;;;;;5026829;28;20061;-59
2021/09/01 07:31:07;;;;;;;24.30;12.45;;;16.50;99.90;;;;;;5030654;28;20013;-59
2021/09/01 07:33:34;;;;;;;19.75;10.38;;;16.50;99.90;;;;;;5031999;28;20025;-58
2021/09/01 07:36:00;;;;;;;22.00;10.45;;;16.60;99.90;;;;;;5028021;28;20043;-56
2021/09/01 07:38:25;;;;;;;20.02;10.43;;;16.60;99.90;;;;;;5030401;28;20484;-58
2021/09/01 07:40:52;;;;;;;20.80;10.32;;;16.70;99.90;;;;;;5030684;28;20022;-56
2021/09/01 07:43:19;;;;;;;25.27;11.20;;;16.70;99.90;;;;;;5029244;28;20026;-57
2021/09/01 07:45:45;;;;;;;20.73;10.00;;;16.70;99.90;;;;;;5013906;28;20054;-56
2021/09/01 07:48:15;;;;;;;17.17;10.38;;;16.60;99.90;;;;;;5026412;28;20029;-55
2021/09/01 07:50:43;;;;;;;19.33;9.93;;;16.70;99.90;;;;;;5029622;28;20511;-56
2021/09/01 07:53:09;;;;;;;16.88;9.68;;;16.80;99.90;;;;;;5025117;28;20046;-57
2021/09/01 07:55:35;;;;;;;18.67;9.57;;;16.70;99.90;;;;;;5029891;28;20025;-56
2021/09/01 07:58:02;;;;;;;21.23;9.63;;;17.00;99.90;;;;;;5025312;28;20025;-55
2021/09/01 08:00:27;;;;;;;25.05;9.48;;;17.10;99.90;;;;;;5031631;28;20014;-56
2021/09/01 08:02:53;;;;;;;18.83;7.75;;;17.20;99.90;;;;;;5031999;28;20052;-55
2021/09/01 08:05:20;;;;;;;16.83;8.50;;;17.30;99.90;;;;;;5029425;28;20484;-56
2021/09/01 08:07:46;;;;;;;17.33;8.18;;;17.40;99.90;;;;;;5023219;28;20034;-57
2021/09/01 08:10:12;;;;;;;15.93;7.75;;;17.40;99.90;;;;;;5028948;28;20531;-58
2021/09/01 08:12:39;;;;;;;16.02;7.18;;;17.50;99.90;;;;;;5031497;28;20045;-58
2021/09/01 08:15:06;;;;;;;18.08;6.85;;;17.60;99.90;;;;;;5031020;28;20037;-59
2021/09/01 08:17:32;;;;;;;15.25;7.22;;;17.50;99.90;;;;;;5028895;28;20510;-57
2021/09/01 08:19:58;;;;;;;19.45;7.60;;;17.40;99.90;;;;;;5030446;28;20041;-59
2021/09/01 08:22:23;;;;;;;18.00;7.57;;;17.40;99.90;;;;;;5030670;28;20120;-57
2021/09/01 08:24:49;;;;;;;15.60;6.50;;;17.50;99.90;;;;;;5031702;28;20034;-58
2021/09/01 08:27:14;;;;;;;9.60;5.63;;;17.90;99.90;;;;;;5028751;28;20034;-58
2021/09/01 08:29:40;;;;;;;16.13;5.65;;;18.00;99.90;;;;;;5031445;28;20041;-56
2021/09/01 08:32:07;;;;;;;9.43;5.53;;;17.90;99.90;;;;;;5027735;28;20037;-58
2021/09/01 08:34:32;;;;;;;9.20;4.90;;;17.60;99.90;;;;;;5025770;28;20065;-58
2021/09/01 08:37:00;;;;;;;8.18;4.75;;;17.70;99.90;;;;;;5023628;28;20053;-58
2021/09/01 08:39:25;;;;;;;11.75;5.05;;;17.70;99.90;;;;;;5025944;28;20100;-56
2021/09/01 08:41:52;;;;;;;13.57;5.82;;;17.90;99.90;;;;;;5026992;28;20121;-58
2021/09/01 08:44:17;;;;;;;14.63;5.30;;;17.80;99.90;;;;;;5028070;28;20080;-58
2021/09/01 08:46:46;;;;;;;10.27;4.75;;;17.80;99.90;;;;;;5030429;28;20404;-58
2021/09/01 08:49:13;;;;;;;9.93;5.03;;;18.00;99.90;;;;;;5032030;28;20048;-57
2021/09/01 08:51:39;;;;;;;8.73;4.68;;;18.10;99.90;;;;;;5021271;28;20038;-55
2021/09/01 08:54:06;;;;;;;8.68;4.68;;;18.30;99.90;;;;;;5027288;28;20055;-58
2021/09/01 08:56:32;;;;;;;9.52;4.80;;;18.40;99.90;;;;;;5027940;28;20022;-57
2021/09/01 08:58:57;;;;;;;8.77;4.60;;;18.60;99.90;;;;;;5025163;28;20028;-59
2021/09/01 09:01:45;;;;;;;12.70;5.25;;;18.40;99.90;;;;;;5027889;28;20026;-58
2021/09/01 09:04:21;;;;;;;16.30;4.97;;;18.30;99.90;;;;;;5030814;28;20022;-59
2021/09/01 09:06:49;;;;;;;11.25;4.90;;;18.40;99.90;;;;;;5024919;28;20040;-59
2021/09/01 09:09:18;;;;;;;7.93;4.75;;;18.40;99.90;;;;;;5029668;28;20031;-59
2021/09/01 09:11:43;;;;;;;12.95;5.30;;;18.40;99.90;;;;;;5027340;28;20022;-59
2021/09/01 09:14:21;;;;;;;7.25;4.32;;;18.10;99.90;;;;;;5022798;28;20033;-56
2021/09/01 09:17:09;;;;;;;10.90;4.63;;;17.80;99.90;;;;;;5024876;28;20507;-58
2021/09/01 09:19:54;;;;;;;7.40;4.57;;;17.80;99.90;;;;;;5027112;28;20036;-60
2021/09/01 09:22:29;;;;;;;10.00;5.45;;;18.00;99.90;;;;;;5029261;28;20113;-58
2021/09/01 09:25:07;;;;;;;7.75;4.10;;;18.10;99.90;;;;;;5028966;28;20030;-56
2021/09/01 09:27:43;;;;;;;9.73;4.55;;;18.30;99.90;;;;;;5029300;28;20033;-57
2021/09/01 09:30:21;;;;;;;7.85;5.70;;;18.50;99.90;;;;;;5025659;28;20029;-56
2021/09/01 09:33:07;;;;;;;6.50;4.28;;;18.50;99.90;;;;;;5022538;28;20484;-55
2021/09/01 09:35:50;;;;;;;6.68;4.43;;;18.60;99.90;;;;;;5024475;28;20061;-55
2021/09/01 09:38:26;;;;;;;6.57;4.00;;;18.80;99.90;;;;;;5023630;28;20112;-58
2021/09/01 09:40:52;;;;;;;7.60;4.00;;;18.80;99.90;;;;;;5026462;28;20369;-56
2021/09/01 09:43:19;;;;;;;8.15;4.38;;;18.90;99.90;;;;;;5021961;28;20079;-59
2021/09/01 09:45:55;;;;;;;8.80;4.72;;;18.70;99.90;;;;;;5029108;28;20112;-57
2021/09/01 09:48:27;;;;;;;9.52;4.88;;;19.10;99.90;;;;;;5026158;28;20447;-59
2021/09/01 09:50:52;;;;;;;6.93;4.75;;;19.50;99.90;;;;;;5021504;28;20032;-58
2021/09/01 09:53:36;;;;;;;8.15;4.55;;;19.30;99.90;;;;;;5021712;28;20104;-58
2021/09/01 09:56:03;;;;;;;;;;;19.30;99.90;;;;;;5018474;28;20626;-58
2021/09/01 09:58:31;;;;;;;11.32;4.25;;;19.60;99.90;;;;;;5025891;28;20053;-59
2021/09/01 10:00:56;;;;;;;9.80;5.00;;;19.60;99.90;;;;;;5026232;28;20040;-58
2021/09/01 10:03:22;;;;;;;11.85;6.75;;;19.70;99.90;;;;;;5027463;28;20717;-57
2021/09/01 10:05:48;;;;;;;11.65;6.95;;;19.80;99.90;;;;;;5027783;28;20029;-58
2021/09/01 10:08:13;;;;;;;13.57;8.23;;;19.80;99.90;;;;;;5027653;28;20025;-58
2021/09/01 10:10:39;;;;;;;15.60;9.13;;;19.90;99.50;;;;;;5027100;28;21394;-58
2021/09/01 10:13:10;;;;;;;17.15;9.25;;;19.70;99.80;;;;;;5032056;28;20497;-57
2021/09/01 10:15:39;;;;;;;13.80;9.93;;;19.60;99.90;;;;;;5028361;28;20026;-54
2021/09/01 10:18:06;;;;;;;16.58;11.10;;;19.80;99.90;;;;;;5029103;28;20021;-56
2021/09/01 10:20:33;;;;;;;21.73;12.05;;;19.80;99.90;;;;;;5024109;28;20092;-58
2021/09/01 10:23:06;;;;;;;16.08;11.45;;;19.90;99.90;;;;;;5025233;28;20072;-58
2021/09/01 10:25:35;;;;;;;20.98;11.77;;;19.90;99.90;;;;;;5028133;28;20583;-56
2021/09/01 10:28:20;;;;;;;23.33;13.57;;;19.90;99.80;;;;;;5028926;28;20037;-57
2021/09/01 10:31:17;;;;;;;18.75;12.80;;;20.00;99.60;;;;;;5025155;28;20116;-57
2021/09/01 10:33:46;;;;;;;16.92;12.48;;;20.20;99.90;;;;;;5027015;28;20100;-57
2021/09/01 10:36:24;;;;;;;16.63;11.40;;;20.20;99.80;;;;;;5027213;28;20018;-59
2021/09/01 10:38:51;;;;;;;17.85;11.68;;;20.60;98.90;;;;;;5028159;28;20027;-58
2021/09/01 10:41:29;;;;;;;17.42;11.43;;;20.50;98.30;;;;;;5028311;28;20029;-58
2021/09/01 10:44:18;;;;;;;18.38;12.48;;;20.10;99.20;;;;;;5025058;28;20072;-59
2021/09/01 10:46:53;;;;;;;18.52;12.43;;;20.00;99.20;;;;;;4996347;28;20077;-58
2021/09/01 10:49:26;;;;;;;19.42;13.02;;;20.20;98.70;;;;;;5026112;28;20492;-60
2021/09/01 10:51:53;;;;;;;;;;;20.20;99.30;;;;;;5028943;28;20110;-59
2021/09/01 10:54:32;;;;;;;18.38;10.30;;;20.10;99.70;;;;;;5028763;28;19909;-59
2021/09/01 10:56:59;;;;;;;22.48;11.85;;;20.10;99.40;;;;;;5023317;28;20033;-58
2021/09/01 10:59:27;;;;;;;16.52;11.48;;;20.00;99.50;;;;;;5017393;28;20049;-59
2021/09/01 11:02:27;;;;;;;16.73;10.80;;;20.10;99.10;;;;;;5024392;28;20037;-58
2021/09/01 11:04:58;;;;;;;18.42;12.20;;;20.00;99.60;;;;;;4947160;28;20046;-57
2021/09/01 11:07:31;;;;;;;15.48;11.57;;;20.20;99.50;;;;;;5011341;28;20083;-59
2021/09/01 11:10:05;;;;;;;19.63;11.35;;;20.40;99.20;;;;;;5023435;28;20025;-59
2021/09/01 11:12:34;;;;;;;21.50;14.20;;;20.40;99.30;;;;;;5025500;28;20638;-59
2021/09/01 11:15:00;;;;;;;23.42;14.07;;;20.40;98.80;;;;;;5025770;28;20507;-58
2021/09/01 11:17:28;;;;;;;19.23;13.57;;;20.30;98.80;;;;;;5024604;28;20096;-59
2021/09/01 11:20:00;;;;;;;17.20;13.07;;;20.50;98.90;;;;;;5026459;28;20025;-59
2021/09/01 11:22:31;;;;;;;20.80;14.60;;;20.10;99.70;;;;;;5026853;28;20021;-58
2021/09/01 11:25:11;;;;;;;20.33;14.40;;;20.20;99.40;;;;;;5023958;28;20026;-58
2021/09/01 11:27:46;;;;;;;21.27;14.50;;;20.00;99.60;;;;;;5029928;28;20108;-59
2021/09/01 11:30:13;;;;;;;29.33;17.27;;;20.10;99.90;;;;;;5029648;28;20025;-57
2021/09/01 11:32:40;;;;;;;21.13;15.73;;;20.20;99.30;;;;;;5026111;28;20034;-56
2021/09/01 11:35:21;;;;;;;23.60;15.77;;;20.10;99.90;;;;;;5029847;28;20391;-57
2021/09/01 11:37:57;;;;;;;25.15;16.65;;;19.80;99.90;;;;;;5029418;28;20022;-56
2021/09/01 11:40:30;;;;;;;23.65;17.27;;;19.80;99.90;;;;;;5028654;28;20094;-55
2021/09/01 11:42:57;;;;;;;26.00;16.23;;;19.90;99.90;;;;;;5022161;28;20500;-58
2021/09/01 11:45:22;;;;;;;23.30;15.38;;;19.90;99.90;;;;;;5031324;28;20598;-58
2021/09/01 11:47:48;;;;;;;25.27;15.32;;;20.10;99.90;;;;;;5026455;28;20029;-57
2021/09/01 11:50:18;;;;;;;21.67;14.75;;;20.30;99.90;;;;;;5029351;28;20057;-57
2021/09/01 11:52:50;;;;;;;18.15;13.10;;;20.40;99.90;;;;;;5026858;28;20392;-51
2021/09/01 11:55:22;;;;;;;19.13;12.68;;;20.40;99.90;;;;;;5035078;28;20480;-57
2021/09/01 11:57:47;;;;;;;26.55;14.15;;;20.30;99.90;;;;;;5025633;28;20069;-59
2021/09/01 12:00:13;;;;;;;22.13;14.35;;;20.30;99.90;;;;;;5020755;28;20500;-59
2021/09/01 12:02:41;;;;;;;20.17;13.23;;;20.30;99.90;;;;;;5028409;28;20025;-59
2021/09/01 12:05:07;;;;;;;20.63;14.40;;;20.40;99.80;;;;;;5028661;28;20050;-58
2021/09/01 12:07:36;;;;;;;19.45;12.60;;;20.40;99.10;;;;;;5027681;28;20038;-59
2021/09/01 12:10:07;;;;;;;21.90;14.80;;;20.30;99.90;;;;;;5031160;28;20036;-60
2021/09/01 12:12:34;;;;;;;22.13;13.10;;;20.30;99.90;;;;;;5029459;28;20404;-59
2021/09/01 12:15:12;;;;;;;24.48;12.55;;;20.30;99.60;;;;;;5025258;28;20099;-59
2021/09/01 12:17:39;;;;;;;16.60;10.32;;;20.40;99.40;;;;;;5025185;28;20029;-58
2021/09/01 12:20:06;;;;;;;13.13;10.32;;;20.30;99.80;;;;;;5031412;28;20013;-58
2021/09/01 12:22:33;;;;;;;16.52;10.40;;;20.40;99.10;;;;;;5025826;28;20098;-58
2021/09/01 12:25:01;;;;;;;14.23;9.10;;;20.40;99.00;;;;;;5026649;28;20041;-57
2021/09/01 12:27:27;;;;;;;12.80;8.52;;;20.40;99.40;;;;;;5017983;28;20032;-52
2021/09/01 12:29:53;;;;;;;24.67;9.00;;;20.40;99.10;;;;;;5019608;28;20017;-59
2021/09/01 12:32:21;;;;;;;15.95;8.27;;;20.50;99.30;;;;;;5029925;28;20036;-59
2021/09/01 12:35:02;;;;;;;12.93;7.22;;;20.60;99.00;;;;;;5026353;28;20030;-58
2021/09/01 12:37:31;;;;;;;12.63;7.93;;;20.50;99.10;;;;;;5029179;28;20021;-58